sensor_id;sensor_type;location;lat;lon;timestamp;P1;durP1;ratioP1;P2;durP2;ratioP2
75787;SDS011;64406;50.024;14.492;2022-10-17T10:40:25;26.27;;;17.80;;
75787;SDS011;64406;50.024;14.492;2022-10-17T10:43:01;29.00;;;18.92;;
75787;SDS011;64406;50.024;14.492;2022-10-17T10:48:00;29.73;;;19.75;;
75787;SDS011;64406;50.024;14.492;2022-10-17T10:50:30;28.08;;;19.08;;
75787;SDS011;64406;50.024;14.492;2022-10-17T10:55:31;25.10;;;18.75;;
75787;SDS011;64406;50.024;14.492;2022-10-17T10:58:02;25.88;;;18.75;;
75787;SDS011;64406;50.024;14.492;2022-10-17T11:00:34;27.40;;;17.63;;
75787;SDS011;64406;50.024;14.492;2022-10-17T11:11:16;23.08;;;15.20;;
75787;SDS011;64406;50.024;14.492;2022-10-17T11:13:57;23.33;;;16.45;;
75787;SDS011;64406;50.024;14.492;2022-10-17T11:16:30;21.60;;;16.10;;
75787;SDS011;64406;50.024;14.492;2022-10-17T11:22:04;26.88;;;18.10;;
75787;SDS011;64406;50.024;14.492;2022-10-17T11:24:45;25.13;;;16.80;;
75787;SDS011;64406;50.024;14.492;2022-10-17T11:27:21;26.08;;;16.80;;
75787;SDS011;64406;50.024;14.492;2022-10-17T11:29:48;22.20;;;15.98;;
75787;SDS011;64406;50.024;14.492;2022-10-17T11:32:18;23.35;;;16.73;;
75787;SDS011;64406;50.024;14.492;2022-10-17T11:34:50;24.02;;;16.40;;
75787;SDS011;64406;50.024;14.492;2022-10-17T11:37:21;25.40;;;17.70;;
75787;SDS011;64406;50.024;14.492;2022-10-17T11:42:38;22.23;;;15.00;;
75787;SDS011;64406;50.024;14.492;2022-10-17T11:45:17;24.23;;;15.73;;
75787;SDS011;64406;50.024;14.492;2022-10-17T11:47:47;26.23;;;17.52;;
75787;SDS011;64406;50.024;14.492;2022-10-17T11:50:34;22.95;;;16.17;;
75787;SDS011;64406;50.024;14.492;2022-10-17T11:55:43;20.85;;;15.13;;
75787;SDS011;64406;50.024;14.492;2022-10-17T12:01:10;24.48;;;15.30;;
75787;SDS011;64406;50.024;14.492;2022-10-17T12:06:29;22.75;;;15.65;;
75787;SDS011;64406;50.024;14.492;2022-10-17T12:08:57;23.58;;;15.15;;
75787;SDS011;64406;50.024;14.492;2022-10-17T12:14:09;21.27;;;14.70;;
75787;SDS011;64406;50.024;14.492;2022-10-17T12:25:31;21.08;;;14.68;;
75787;SDS011;64406;50.024;14.492;2022-10-17T12:30:30;22.38;;;14.70;;
75787;SDS011;64406;50.024;14.492;2022-10-17T12:35:22;21.23;;;14.48;;
75787;SDS011;64406;50.024;14.492;2022-10-17T12:43:01;18.05;;;14.15;;
75787;SDS011;64406;50.024;14.492;2022-10-17T12:51:13;19.85;;;14.85;;
75787;SDS011;64406;50.024;14.492;2022-10-17T12:56:21;17.27;;;11.68;;
75787;SDS011;64406;50.024;14.492;2022-10-17T12:58:56;17.55;;;13.25;;
75787;SDS011;64406;50.024;14.492;2022-10-17T13:01:26;18.23;;;13.15;;
75787;SDS011;64406;50.024;14.492;2022-10-17T13:03:54;19.70;;;14.15;;
75787;SDS011;64406;50.024;14.492;2022-10-17T13:06:24;18.15;;;13.20;;
75787;SDS011;64406;50.024;14.492;2022-10-17T13:08:55;17.00;;;13.15;;
75787;SDS011;64406;50.024;14.492;2022-10-17T13:11:24;19.08;;;13.40;;
75787;SDS011;64406;50.024;14.492;2022-10-17T13:13:52;18.05;;;13.38;;
75787;SDS011;64406;50.024;14.492;2022-10-17T13:16:39;18.52;;;13.18;;
75787;SDS011;64406;50.024;14.492;2022-10-17T13:19:16;19.85;;;13.40;;
75787;SDS011;64406;50.024;14.492;2022-10-17T13:21:50;17.95;;;13.10;;
75787;SDS011;64406;50.024;14.492;2022-10-17T13:24:27;17.17;;;13.25;;
75787;SDS011;64406;50.024;14.492;2022-10-17T13:26:58;16.30;;;12.65;;
75787;SDS011;64406;50.024;14.492;2022-10-17T13:29:24;18.85;;;14.20;;
75787;SDS011;64406;50.024;14.492;2022-10-17T13:31:53;17.67;;;14.02;;
75787;SDS011;64406;50.024;14.492;2022-10-17T13:34:28;16.60;;;13.48;;
75787;SDS011;64406;50.024;14.492;2022-10-17T13:37:05;19.17;;;14.18;;
75787;SDS011;64406;50.024;14.492;2022-10-17T13:39:41;20.40;;;13.85;;
75787;SDS011;64406;50.024;14.492;2022-10-17T13:42:17;18.38;;;13.80;;
75787;SDS011;64406;50.024;14.492;2022-10-17T13:44:48;18.88;;;13.02;;
75787;SDS011;64406;50.024;14.492;2022-10-17T13:47:24;16.20;;;12.50;;
75787;SDS011;64406;50.024;14.492;2022-10-17T13:49:52;16.33;;;13.95;;
75787;SDS011;64406;50.024;14.492;2022-10-17T13:52:28;18.52;;;13.13;;
75787;SDS011;64406;50.024;14.492;2022-10-17T13:54:54;17.25;;;13.70;;
75787;SDS011;64406;50.024;14.492;2022-10-17T13:57:29;16.25;;;13.07;;
75787;SDS011;64406;50.024;14.492;2022-10-17T14:02:25;15.95;;;12.88;;
75787;SDS011;64406;50.024;14.492;2022-10-17T14:05:03;16.85;;;13.50;;
75787;SDS011;64406;50.024;14.492;2022-10-17T14:10:06;17.20;;;13.65;;
75787;SDS011;64406;50.024;14.492;2022-10-17T14:12:44;15.18;;;11.98;;
75787;SDS011;64406;50.024;14.492;2022-10-17T14:15:12;16.33;;;14.07;;
75787;SDS011;64406;50.024;14.492;2022-10-17T14:17:39;16.95;;;12.70;;
75787;SDS011;64406;50.024;14.492;2022-10-17T14:20:15;18.13;;;14.13;;
75787;SDS011;64406;50.024;14.492;2022-10-17T14:22:42;17.13;;;13.38;;
75787;SDS011;64406;50.024;14.492;2022-10-17T14:25:27;16.40;;;13.60;;
75787;SDS011;64406;50.024;14.492;2022-10-17T14:30:46;17.45;;;14.13;;
75787;SDS011;64406;50.024;14.492;2022-10-17T14:33:23;17.67;;;13.35;;
75787;SDS011;64406;50.024;14.492;2022-10-17T14:35:54;15.52;;;12.88;;
75787;SDS011;64406;50.024;14.492;2022-10-17T14:38:22;17.10;;;14.38;;
75787;SDS011;64406;50.024;14.492;2022-10-17T14:40:52;16.88;;;12.98;;
75787;SDS011;64406;50.024;14.492;2022-10-17T14:43:20;16.05;;;13.73;;
75787;SDS011;64406;50.024;14.492;2022-10-17T14:45:48;19.20;;;13.70;;
75787;SDS011;64406;50.024;14.492;2022-10-17T14:48:16;16.55;;;13.45;;
75787;SDS011;64406;50.024;14.492;2022-10-17T14:53:32;15.40;;;13.38;;
75787;SDS011;64406;50.024;14.492;2022-10-17T14:55:59;17.08;;;14.00;;
75787;SDS011;64406;50.024;14.492;2022-10-17T14:58:27;17.42;;;13.52;;
75787;SDS011;64406;50.024;14.492;2022-10-17T15:00:54;19.15;;;13.77;;
75787;SDS011;64406;50.024;14.492;2022-10-17T15:03:20;19.17;;;14.30;;
75787;SDS011;64406;50.024;14.492;2022-10-17T15:05:46;16.23;;;13.30;;
75787;SDS011;64406;50.024;14.492;2022-10-17T15:08:13;20.42;;;14.60;;
75787;SDS011;64406;50.024;14.492;2022-10-17T15:10:40;16.42;;;13.52;;
75787;SDS011;64406;50.024;14.492;2022-10-17T15:13:07;18.60;;;13.85;;
75787;SDS011;64406;50.024;14.492;2022-10-17T15:15:33;15.35;;;12.50;;
75787;SDS011;64406;50.024;14.492;2022-10-17T15:17:59;15.82;;;13.25;;
75787;SDS011;64406;50.024;14.492;2022-10-17T15:20:25;21.02;;;13.55;;
75787;SDS011;64406;50.024;14.492;2022-10-17T15:22:55;18.83;;;13.50;;
75787;SDS011;64406;50.024;14.492;2022-10-17T15:25:22;17.70;;;13.27;;
75787;SDS011;64406;50.024;14.492;2022-10-17T15:27:49;18.33;;;13.57;;
75787;SDS011;64406;50.024;14.492;2022-10-17T15:30:25;21.55;;;13.25;;
75787;SDS011;64406;50.024;14.492;2022-10-17T15:32:52;21.20;;;13.20;;
75787;SDS011;64406;50.024;14.492;2022-10-17T15:35:18;17.77;;;12.45;;
75787;SDS011;64406;50.024;14.492;2022-10-17T15:37:44;19.85;;;13.25;;
75787;SDS011;64406;50.024;14.492;2022-10-17T15:40:18;20.55;;;14.00;;
75787;SDS011;64406;50.024;14.492;2022-10-17T15:42:48;19.63;;;13.40;;
75787;SDS011;64406;50.024;14.492;2022-10-17T15:45:14;17.90;;;12.95;;
75787;SDS011;64406;50.024;14.492;2022-10-17T15:47:42;20.17;;;14.25;;
75787;SDS011;64406;50.024;14.492;2022-10-17T15:50:13;23.90;;;14.85;;
75787;SDS011;64406;50.024;14.492;2022-10-17T15:52:39;23.80;;;15.18;;
75787;SDS011;64406;50.024;14.492;2022-10-17T15:55:05;29.08;;;15.32;;
75787;SDS011;64406;50.024;14.492;2022-10-17T15:57:33;20.85;;;15.63;;
75787;SDS011;64406;50.024;14.492;2022-10-17T16:02:37;20.33;;;15.77;;
75787;SDS011;64406;50.024;14.492;2022-10-17T16:05:07;23.15;;;16.00;;
75787;SDS011;64406;50.024;14.492;2022-10-17T16:07:37;23.02;;;16.25;;
75787;SDS011;64406;50.024;14.492;2022-10-17T16:12:38;21.23;;;14.32;;
75787;SDS011;64406;50.024;14.492;2022-10-17T16:15:27;17.60;;;11.95;;
75787;SDS011;64406;50.024;14.492;2022-10-17T16:20:27;15.45;;;11.50;;
75787;SDS011;64406;50.024;14.492;2022-10-17T16:22:53;20.27;;;11.25;;
75787;SDS011;64406;50.024;14.492;2022-10-17T16:27:59;16.77;;;11.35;;
75787;SDS011;64406;50.024;14.492;2022-10-17T16:30:27;16.50;;;11.52;;
75787;SDS011;64406;50.024;14.492;2022-10-17T16:32:54;14.57;;;11.13;;
75787;SDS011;64406;50.024;14.492;2022-10-17T16:35:20;17.45;;;11.90;;
75787;SDS011;64406;50.024;14.492;2022-10-17T16:37:48;16.77;;;12.00;;
75787;SDS011;64406;50.024;14.492;2022-10-17T16:40:14;20.23;;;12.45;;
75787;SDS011;64406;50.024;14.492;2022-10-17T16:42:40;16.45;;;11.88;;
75787;SDS011;64406;50.024;14.492;2022-10-17T16:45:05;20.05;;;12.63;;
75787;SDS011;64406;50.024;14.492;2022-10-17T16:47:31;19.27;;;12.43;;
75787;SDS011;64406;50.024;14.492;2022-10-17T16:49:57;20.30;;;11.48;;
75787;SDS011;64406;50.024;14.492;2022-10-17T16:52:22;16.23;;;11.68;;
75787;SDS011;64406;50.024;14.492;2022-10-17T16:54:47;18.38;;;11.38;;
75787;SDS011;64406;50.024;14.492;2022-10-17T16:57:13;18.23;;;11.85;;
75787;SDS011;64406;50.024;14.492;2022-10-17T16:59:38;22.35;;;14.55;;
75787;SDS011;64406;50.024;14.492;2022-10-17T17:02:03;30.98;;;15.68;;
75787;SDS011;64406;50.024;14.492;2022-10-17T17:04:29;27.40;;;15.73;;
75787;SDS011;64406;50.024;14.492;2022-10-17T17:06:54;26.00;;;14.77;;
75787;SDS011;64406;50.024;14.492;2022-10-17T17:09:20;22.25;;;13.73;;
75787;SDS011;64406;50.024;14.492;2022-10-17T17:11:45;24.90;;;14.73;;
75787;SDS011;64406;50.024;14.492;2022-10-17T17:14:12;24.75;;;14.88;;
75787;SDS011;64406;50.024;14.492;2022-10-17T17:16:37;24.00;;;15.48;;
75787;SDS011;64406;50.024;14.492;2022-10-17T17:21:34;22.15;;;15.65;;
75787;SDS011;64406;50.024;14.492;2022-10-17T17:24:00;23.50;;;13.75;;
75787;SDS011;64406;50.024;14.492;2022-10-17T17:26:28;21.77;;;15.02;;
75787;SDS011;64406;50.024;14.492;2022-10-17T17:28:56;23.75;;;14.70;;
75787;SDS011;64406;50.024;14.492;2022-10-17T17:31:23;21.85;;;14.38;;
75787;SDS011;64406;50.024;14.492;2022-10-17T17:33:51;20.17;;;14.07;;
75787;SDS011;64406;50.024;14.492;2022-10-17T17:36:21;22.42;;;15.00;;
75787;SDS011;64406;50.024;14.492;2022-10-17T17:38:49;23.05;;;15.45;;
75787;SDS011;64406;50.024;14.492;2022-10-17T17:41:16;24.23;;;15.50;;
75787;SDS011;64406;50.024;14.492;2022-10-17T17:43:43;18.95;;;13.60;;
75787;SDS011;64406;50.024;14.492;2022-10-17T17:46:11;28.52;;;14.98;;
75787;SDS011;64406;50.024;14.492;2022-10-17T17:48:41;22.05;;;15.23;;
75787;SDS011;64406;50.024;14.492;2022-10-17T17:51:08;23.50;;;14.73;;
75787;SDS011;64406;50.024;14.492;2022-10-17T17:53:35;28.23;;;14.85;;
75787;SDS011;64406;50.024;14.492;2022-10-17T17:58:34;24.17;;;16.48;;
75787;SDS011;64406;50.024;14.492;2022-10-17T18:01:01;23.45;;;14.68;;
75787;SDS011;64406;50.024;14.492;2022-10-17T18:03:37;30.38;;;14.85;;
75787;SDS011;64406;50.024;14.492;2022-10-17T18:06:04;24.13;;;15.68;;
75787;SDS011;64406;50.024;14.492;2022-10-17T18:08:32;24.70;;;15.57;;
75787;SDS011;64406;50.024;14.492;2022-10-17T18:10:58;22.88;;;14.15;;
75787;SDS011;64406;50.024;14.492;2022-10-17T18:13:24;22.48;;;15.15;;
75787;SDS011;64406;50.024;14.492;2022-10-17T18:15:50;23.25;;;14.60;;
75787;SDS011;64406;50.024;14.492;2022-10-17T18:18:19;25.48;;;14.02;;
75787;SDS011;64406;50.024;14.492;2022-10-17T18:20:45;19.52;;;13.52;;
75787;SDS011;64406;50.024;14.492;2022-10-17T18:23:10;24.05;;;14.35;;
75787;SDS011;64406;50.024;14.492;2022-10-17T18:25:35;24.33;;;15.37;;
75787;SDS011;64406;50.024;14.492;2022-10-17T18:28:01;26.05;;;13.25;;
75787;SDS011;64406;50.024;14.492;2022-10-17T18:30:27;23.17;;;15.48;;
75787;SDS011;64406;50.024;14.492;2022-10-17T18:32:52;22.25;;;14.15;;
75787;SDS011;64406;50.024;14.492;2022-10-17T18:35:17;22.63;;;14.48;;
75787;SDS011;64406;50.024;14.492;2022-10-17T18:37:43;25.17;;;15.55;;
75787;SDS011;64406;50.024;14.492;2022-10-17T18:40:08;23.73;;;15.95;;
75787;SDS011;64406;50.024;14.492;2022-10-17T18:42:34;23.75;;;15.98;;
75787;SDS011;64406;50.024;14.492;2022-10-17T18:44:59;25.98;;;16.20;;
75787;SDS011;64406;50.024;14.492;2022-10-17T18:47:25;24.33;;;15.55;;
75787;SDS011;64406;50.024;14.492;2022-10-17T18:49:50;27.13;;;16.13;;
75787;SDS011;64406;50.024;14.492;2022-10-17T18:52:15;24.42;;;15.57;;
75787;SDS011;64406;50.024;14.492;2022-10-17T18:54:41;25.20;;;15.10;;
75787;SDS011;64406;50.024;14.492;2022-10-17T18:57:06;25.88;;;16.33;;
75787;SDS011;64406;50.024;14.492;2022-10-17T18:59:31;24.92;;;16.75;;
75787;SDS011;64406;50.024;14.492;2022-10-17T19:01:57;28.58;;;16.50;;
75787;SDS011;64406;50.024;14.492;2022-10-17T19:04:22;28.88;;;16.85;;
75787;SDS011;64406;50.024;14.492;2022-10-17T19:06:48;25.70;;;17.15;;
75787;SDS011;64406;50.024;14.492;2022-10-17T19:09:13;30.52;;;18.30;;
75787;SDS011;64406;50.024;14.492;2022-10-17T19:11:39;30.02;;;17.48;;
75787;SDS011;64406;50.024;14.492;2022-10-17T19:14:07;25.90;;;17.10;;
75787;SDS011;64406;50.024;14.492;2022-10-17T19:16:37;29.20;;;17.60;;
75787;SDS011;64406;50.024;14.492;2022-10-17T19:19:09;25.63;;;16.75;;
75787;SDS011;64406;50.024;14.492;2022-10-17T19:21:39;30.08;;;17.25;;
75787;SDS011;64406;50.024;14.492;2022-10-17T19:24:06;27.02;;;16.90;;
75787;SDS011;64406;50.024;14.492;2022-10-17T19:26:35;26.02;;;16.42;;
75787;SDS011;64406;50.024;14.492;2022-10-17T19:29:01;28.90;;;16.77;;
75787;SDS011;64406;50.024;14.492;2022-10-17T19:31:28;29.30;;;17.52;;
75787;SDS011;64406;50.024;14.492;2022-10-17T19:33:55;27.33;;;16.63;;
75787;SDS011;64406;50.024;14.492;2022-10-17T19:36:22;29.42;;;17.38;;
75787;SDS011;64406;50.024;14.492;2022-10-17T19:38:51;33.20;;;18.17;;
75787;SDS011;64406;50.024;14.492;2022-10-17T19:41:17;27.67;;;17.27;;
75787;SDS011;64406;50.024;14.492;2022-10-17T19:43:43;27.58;;;16.88;;
75787;SDS011;64406;50.024;14.492;2022-10-17T19:46:15;28.42;;;18.00;;
75787;SDS011;64406;50.024;14.492;2022-10-17T19:48:42;27.50;;;18.42;;
75787;SDS011;64406;50.024;14.492;2022-10-17T19:51:12;28.45;;;18.00;;
75787;SDS011;64406;50.024;14.492;2022-10-17T19:53:39;27.08;;;16.08;;
75787;SDS011;64406;50.024;14.492;2022-10-17T19:56:05;27.98;;;17.50;;
75787;SDS011;64406;50.024;14.492;2022-10-17T19:58:31;28.75;;;17.27;;
75787;SDS011;64406;50.024;14.492;2022-10-17T20:00:59;24.48;;;17.35;;
75787;SDS011;64406;50.024;14.492;2022-10-17T20:03:27;28.33;;;17.60;;
75787;SDS011;64406;50.024;14.492;2022-10-17T20:08:28;26.83;;;16.98;;
75787;SDS011;64406;50.024;14.492;2022-10-17T20:10:53;30.33;;;16.88;;
75787;SDS011;64406;50.024;14.492;2022-10-17T20:13:19;28.02;;;16.85;;
75787;SDS011;64406;50.024;14.492;2022-10-17T20:15:54;28.65;;;18.10;;
75787;SDS011;64406;50.024;14.492;2022-10-17T20:18:20;28.63;;;17.77;;
75787;SDS011;64406;50.024;14.492;2022-10-17T20:20:46;31.13;;;17.67;;
75787;SDS011;64406;50.024;14.492;2022-10-17T20:23:12;29.15;;;17.85;;
75787;SDS011;64406;50.024;14.492;2022-10-17T20:25:38;28.30;;;17.88;;
75787;SDS011;64406;50.024;14.492;2022-10-17T20:28:03;30.23;;;17.75;;
75787;SDS011;64406;50.024;14.492;2022-10-17T20:30:30;30.65;;;17.95;;
75787;SDS011;64406;50.024;14.492;2022-10-17T20:32:55;31.38;;;18.13;;
75787;SDS011;64406;50.024;14.492;2022-10-17T20:35:21;30.35;;;18.50;;
75787;SDS011;64406;50.024;14.492;2022-10-17T20:37:47;29.48;;;17.85;;
75787;SDS011;64406;50.024;14.492;2022-10-17T20:40:12;33.65;;;19.13;;
75787;SDS011;64406;50.024;14.492;2022-10-17T20:42:38;28.90;;;16.88;;
75787;SDS011;64406;50.024;14.492;2022-10-17T20:45:03;30.05;;;18.08;;
75787;SDS011;64406;50.024;14.492;2022-10-17T20:47:30;30.38;;;18.52;;
75787;SDS011;64406;50.024;14.492;2022-10-17T20:49:55;28.63;;;18.33;;
75787;SDS011;64406;50.024;14.492;2022-10-17T20:52:21;31.17;;;18.85;;
75787;SDS011;64406;50.024;14.492;2022-10-17T20:54:46;33.58;;;18.88;;
75787;SDS011;64406;50.024;14.492;2022-10-17T20:57:12;32.03;;;18.35;;
75787;SDS011;64406;50.024;14.492;2022-10-17T20:59:37;35.50;;;19.83;;
75787;SDS011;64406;50.024;14.492;2022-10-17T21:02:03;30.88;;;18.15;;
75787;SDS011;64406;50.024;14.492;2022-10-17T21:04:30;30.60;;;19.00;;
75787;SDS011;64406;50.024;14.492;2022-10-17T21:06:56;35.35;;;18.73;;
75787;SDS011;64406;50.024;14.492;2022-10-17T21:09:22;31.13;;;17.48;;
75787;SDS011;64406;50.024;14.492;2022-10-17T21:11:48;26.98;;;18.08;;
75787;SDS011;64406;50.024;14.492;2022-10-17T21:14:16;37.78;;;18.85;;
75787;SDS011;64406;50.024;14.492;2022-10-17T21:16:42;28.63;;;17.92;;
75787;SDS011;64406;50.024;14.492;2022-10-17T21:19:08;30.00;;;17.27;;
75787;SDS011;64406;50.024;14.492;2022-10-17T21:21:37;30.80;;;18.42;;
75787;SDS011;64406;50.024;14.492;2022-10-17T21:24:04;27.42;;;16.70;;
75787;SDS011;64406;50.024;14.492;2022-10-17T21:26:33;29.25;;;17.60;;
75787;SDS011;64406;50.024;14.492;2022-10-17T21:29:00;30.15;;;16.90;;
75787;SDS011;64406;50.024;14.492;2022-10-17T21:31:30;28.48;;;17.30;;
75787;SDS011;64406;50.024;14.492;2022-10-17T21:33:57;31.80;;;18.25;;
75787;SDS011;64406;50.024;14.492;2022-10-17T21:36:25;29.33;;;17.88;;
75787;SDS011;64406;50.024;14.492;2022-10-17T21:38:51;27.75;;;17.77;;
75787;SDS011;64406;50.024;14.492;2022-10-17T21:41:19;31.58;;;18.30;;
75787;SDS011;64406;50.024;14.492;2022-10-17T21:43:46;28.85;;;18.25;;
75787;SDS011;64406;50.024;14.492;2022-10-17T21:46:13;33.75;;;18.50;;
75787;SDS011;64406;50.024;14.492;2022-10-17T21:48:40;30.20;;;18.13;;
75787;SDS011;64406;50.024;14.492;2022-10-17T21:51:07;28.15;;;17.23;;
75787;SDS011;64406;50.024;14.492;2022-10-17T21:56:09;34.63;;;20.25;;
75787;SDS011;64406;50.024;14.492;2022-10-17T21:58:40;36.13;;;20.92;;
75787;SDS011;64406;50.024;14.492;2022-10-17T22:03:36;34.03;;;20.55;;
75787;SDS011;64406;50.024;14.492;2022-10-17T22:06:04;30.67;;;18.95;;
75787;SDS011;64406;50.024;14.492;2022-10-17T22:08:31;33.97;;;19.35;;
75787;SDS011;64406;50.024;14.492;2022-10-17T22:11:01;33.67;;;19.10;;
75787;SDS011;64406;50.024;14.492;2022-10-17T22:13:29;30.13;;;19.45;;
75787;SDS011;64406;50.024;14.492;2022-10-17T22:16:01;34.58;;;19.67;;
75787;SDS011;64406;50.024;14.492;2022-10-17T22:18:28;35.97;;;20.05;;
75787;SDS011;64406;50.024;14.492;2022-10-17T22:20:54;32.78;;;20.60;;
75787;SDS011;64406;50.024;14.492;2022-10-17T22:23:25;35.22;;;20.40;;
75787;SDS011;64406;50.024;14.492;2022-10-17T22:25:54;33.20;;;18.70;;
75787;SDS011;64406;50.024;14.492;2022-10-17T22:28:20;34.53;;;19.52;;
75787;SDS011;64406;50.024;14.492;2022-10-17T22:30:45;31.85;;;20.08;;
75787;SDS011;64406;50.024;14.492;2022-10-17T22:33:11;34.45;;;20.20;;
75787;SDS011;64406;50.024;14.492;2022-10-17T22:35:36;32.42;;;19.73;;
75787;SDS011;64406;50.024;14.492;2022-10-17T22:38:01;35.20;;;21.63;;
75787;SDS011;64406;50.024;14.492;2022-10-17T22:40:27;34.45;;;20.95;;
75787;SDS011;64406;50.024;14.492;2022-10-17T22:42:52;33.95;;;20.42;;
75787;SDS011;64406;50.024;14.492;2022-10-17T22:45:17;33.75;;;20.83;;
75787;SDS011;64406;50.024;14.492;2022-10-17T22:47:43;32.08;;;19.10;;
75787;SDS011;64406;50.024;14.492;2022-10-17T22:50:08;35.40;;;20.65;;
75787;SDS011;64406;50.024;14.492;2022-10-17T22:52:33;32.42;;;19.33;;
75787;SDS011;64406;50.024;14.492;2022-10-17T22:54:59;33.40;;;20.05;;
75787;SDS011;64406;50.024;14.492;2022-10-17T22:57:24;38.50;;;20.73;;
75787;SDS011;64406;50.024;14.492;2022-10-17T23:02:24;39.40;;;22.77;;
75787;SDS011;64406;50.024;14.492;2022-10-17T23:04:49;37.80;;;21.25;;
75787;SDS011;64406;50.024;14.492;2022-10-17T23:07:14;35.03;;;21.08;;
75787;SDS011;64406;50.024;14.492;2022-10-17T23:09:40;37.70;;;22.27;;
75787;SDS011;64406;50.024;14.492;2022-10-17T23:12:06;41.95;;;22.83;;
75787;SDS011;64406;50.024;14.492;2022-10-17T23:14:32;37.88;;;21.98;;
75787;SDS011;64406;50.024;14.492;2022-10-17T23:17:01;42.22;;;23.77;;
75787;SDS011;64406;50.024;14.492;2022-10-17T23:19:26;40.83;;;22.05;;
75787;SDS011;64406;50.024;14.492;2022-10-17T23:21:52;42.90;;;23.17;;
75787;SDS011;64406;50.024;14.492;2022-10-17T23:24:17;43.40;;;24.08;;
75787;SDS011;64406;50.024;14.492;2022-10-17T23:26:43;41.22;;;21.75;;
75787;SDS011;64406;50.024;14.492;2022-10-17T23:29:08;37.05;;;20.80;;
75787;SDS011;64406;50.024;14.492;2022-10-17T23:31:33;34.92;;;20.88;;
75787;SDS011;64406;50.024;14.492;2022-10-17T23:33:58;39.47;;;21.23;;
75787;SDS011;64406;50.024;14.492;2022-10-17T23:36:24;37.33;;;19.95;;
75787;SDS011;64406;50.024;14.492;2022-10-17T23:41:24;39.10;;;21.17;;
75787;SDS011;64406;50.024;14.492;2022-10-17T23:43:50;36.60;;;20.13;;
75787;SDS011;64406;50.024;14.492;2022-10-17T23:46:15;37.25;;;20.73;;
75787;SDS011;64406;50.024;14.492;2022-10-17T23:48:41;36.28;;;20.83;;
75787;SDS011;64406;50.024;14.492;2022-10-17T23:51:07;41.42;;;21.65;;
75787;SDS011;64406;50.024;14.492;2022-10-17T23:53:33;32.88;;;19.77;;
75787;SDS011;64406;50.024;14.492;2022-10-17T23:55:59;35.85;;;20.63;;
75787;SDS011;64406;50.024;14.492;2022-10-17T23:58:25;38.72;;;19.98;;
